sensor_id;sensor_type;location;lat;lon;timestamp;P1;durP1;ratioP1;P2;durP2;ratioP2
33148;SDS011;19506;51.040;3.856;2022-07-29T00:01:20;2.05;;;1.27;;
33148;SDS011;19506;51.040;3.856;2022-07-29T00:03:46;4.20;;;1.08;;
33148;SDS011;19506;51.040;3.856;2022-07-29T00:06:12;1.90;;;1.25;;
33148;SDS011;19506;51.040;3.856;2022-07-29T00:08:39;3.33;;;2.22;;
33148;SDS011;19506;51.040;3.856;2022-07-29T00:11:05;3.13;;;1.23;;
33148;SDS011;19506;51.040;3.856;2022-07-29T00:13:31;8.50;;;1.40;;
33148;SDS011;19506;51.040;3.856;2022-07-29T00:15:57;2.05;;;1.10;;
33148;SDS011;19506;51.040;3.856;2022-07-29T00:18:22;4.32;;;1.80;;
33148;SDS011;19506;51.040;3.856;2022-07-29T00:20:48;1.48;;;0.95;;
33148;SDS011;19506;51.040;3.856;2022-07-29T00:23:13;2.90;;;1.77;;
33148;SDS011;19506;51.040;3.856;2022-07-29T00:25:39;4.05;;;2.15;;
33148;SDS011;19506;51.040;3.856;2022-07-29T00:28:05;2.42;;;1.42;;
33148;SDS011;19506;51.040;3.856;2022-07-29T00:30:31;5.70;;;1.95;;
33148;SDS011;19506;51.040;3.856;2022-07-29T00:32:56;1.85;;;1.30;;
33148;SDS011;19506;51.040;3.856;2022-07-29T00:35:22;5.70;;;1.55;;
33148;SDS011;19506;51.040;3.856;2022-07-29T00:38:07;3.67;;;1.17;;
33148;SDS011;19506;51.040;3.856;2022-07-29T00:40:32;2.13;;;1.88;;
33148;SDS011;19506;51.040;3.856;2022-07-29T00:42:59;4.15;;;1.75;;
33148;SDS011;19506;51.040;3.856;2022-07-29T00:45:25;2.38;;;1.85;;
33148;SDS011;19506;51.040;3.856;2022-07-29T00:47:50;2.30;;;1.40;;
33148;SDS011;19506;51.040;3.856;2022-07-29T00:50:16;3.58;;;1.83;;
33148;SDS011;19506;51.040;3.856;2022-07-29T00:52:42;4.32;;;2.08;;
33148;SDS011;19506;51.040;3.856;2022-07-29T00:55:09;3.15;;;1.65;;
33148;SDS011;19506;51.040;3.856;2022-07-29T00:57:37;5.82;;;1.85;;
33148;SDS011;19506;51.040;3.856;2022-07-29T01:00:04;6.03;;;2.35;;
33148;SDS011;19506;51.040;3.856;2022-07-29T01:02:32;7.63;;;1.75;;
33148;SDS011;19506;51.040;3.856;2022-07-29T01:04:57;3.47;;;1.73;;
33148;SDS011;19506;51.040;3.856;2022-07-29T01:07:24;3.10;;;2.08;;
33148;SDS011;19506;51.040;3.856;2022-07-29T01:09:51;4.20;;;2.13;;
33148;SDS011;19506;51.040;3.856;2022-07-29T01:12:20;3.67;;;1.65;;
33148;SDS011;19506;51.040;3.856;2022-07-29T01:14:50;3.47;;;2.03;;
33148;SDS011;19506;51.040;3.856;2022-07-29T01:17:24;4.95;;;1.95;;
33148;SDS011;19506;51.040;3.856;2022-07-29T01:19:55;3.63;;;2.45;;
33148;SDS011;19506;51.040;3.856;2022-07-29T01:22:40;3.10;;;2.17;;
33148;SDS011;19506;51.040;3.856;2022-07-29T01:31:25;9.68;;;2.05;;
33148;SDS011;19506;51.040;3.856;2022-07-29T01:33:57;6.70;;;2.10;;
33148;SDS011;19506;51.040;3.856;2022-07-29T01:36:37;6.57;;;2.10;;
33148;SDS011;19506;51.040;3.856;2022-07-29T01:39:11;6.90;;;1.98;;
33148;SDS011;19506;51.040;3.856;2022-07-29T01:41:45;5.70;;;2.40;;
33148;SDS011;19506;51.040;3.856;2022-07-29T01:44:37;5.30;;;1.92;;
33148;SDS011;19506;51.040;3.856;2022-07-29T01:47:11;3.92;;;2.20;;
33148;SDS011;19506;51.040;3.856;2022-07-29T01:49:41;4.65;;;2.13;;
33148;SDS011;19506;51.040;3.856;2022-07-29T01:52:13;4.55;;;1.58;;
33148;SDS011;19506;51.040;3.856;2022-07-29T01:54:47;3.78;;;2.20;;
33148;SDS011;19506;51.040;3.856;2022-07-29T01:57:17;5.13;;;2.20;;
33148;SDS011;19506;51.040;3.856;2022-07-29T01:59:45;5.28;;;2.70;;
33148;SDS011;19506;51.040;3.856;2022-07-29T02:02:13;7.07;;;2.33;;
33148;SDS011;19506;51.040;3.856;2022-07-29T02:04:41;4.03;;;2.40;;
33148;SDS011;19506;51.040;3.856;2022-07-29T02:07:10;4.95;;;2.15;;
33148;SDS011;19506;51.040;3.856;2022-07-29T02:09:40;4.57;;;2.10;;
33148;SDS011;19506;51.040;3.856;2022-07-29T02:12:07;4.82;;;1.92;;
33148;SDS011;19506;51.040;3.856;2022-07-29T02:14:39;4.57;;;2.00;;
33148;SDS011;19506;51.040;3.856;2022-07-29T02:17:08;6.85;;;2.30;;
33148;SDS011;19506;51.040;3.856;2022-07-29T02:19:35;8.48;;;1.92;;
33148;SDS011;19506;51.040;3.856;2022-07-29T02:22:03;5.53;;;2.45;;
33148;SDS011;19506;51.040;3.856;2022-07-29T02:24:31;4.45;;;1.98;;
33148;SDS011;19506;51.040;3.856;2022-07-29T02:27:00;3.85;;;1.90;;
33148;SDS011;19506;51.040;3.856;2022-07-29T02:29:28;6.38;;;1.75;;
33148;SDS011;19506;51.040;3.856;2022-07-29T02:31:55;7.65;;;1.70;;
33148;SDS011;19506;51.040;3.856;2022-07-29T02:34:23;3.33;;;1.55;;
33148;SDS011;19506;51.040;3.856;2022-07-29T02:36:50;3.83;;;1.60;;
33148;SDS011;19506;51.040;3.856;2022-07-29T02:39:17;8.05;;;2.03;;
33148;SDS011;19506;51.040;3.856;2022-07-29T02:41:50;2.53;;;1.67;;
33148;SDS011;19506;51.040;3.856;2022-07-29T02:44:21;6.13;;;1.90;;
33148;SDS011;19506;51.040;3.856;2022-07-29T02:46:58;3.95;;;2.33;;
33148;SDS011;19506;51.040;3.856;2022-07-29T02:51:54;4.88;;;1.90;;
33148;SDS011;19506;51.040;3.856;2022-07-29T02:54:29;4.85;;;2.00;;
33148;SDS011;19506;51.040;3.856;2022-07-29T02:57:33;1.67;;;1.58;;
33148;SDS011;19506;51.040;3.856;2022-07-29T03:00:05;5.50;;;1.75;;
33148;SDS011;19506;51.040;3.856;2022-07-29T03:02:34;3.42;;;1.80;;
33148;SDS011;19506;51.040;3.856;2022-07-29T03:05:04;4.88;;;2.22;;
33148;SDS011;19506;51.040;3.856;2022-07-29T03:07:33;4.10;;;1.80;;
33148;SDS011;19506;51.040;3.856;2022-07-29T03:10:00;4.93;;;1.80;;
33148;SDS011;19506;51.040;3.856;2022-07-29T03:12:26;4.38;;;1.70;;
33148;SDS011;19506;51.040;3.856;2022-07-29T03:14:54;8.40;;;2.38;;
33148;SDS011;19506;51.040;3.856;2022-07-29T03:17:21;3.92;;;1.70;;
33148;SDS011;19506;51.040;3.856;2022-07-29T03:19:47;4.07;;;1.92;;
33148;SDS011;19506;51.040;3.856;2022-07-29T03:22:13;5.57;;;2.13;;
33148;SDS011;19506;51.040;3.856;2022-07-29T03:24:39;2.83;;;1.30;;
33148;SDS011;19506;51.040;3.856;2022-07-29T03:27:04;3.88;;;1.83;;
33148;SDS011;19506;51.040;3.856;2022-07-29T03:29:30;6.45;;;1.50;;
33148;SDS011;19506;51.040;3.856;2022-07-29T03:31:56;4.47;;;2.17;;
33148;SDS011;19506;51.040;3.856;2022-07-29T03:34:22;5.70;;;2.45;;
33148;SDS011;19506;51.040;3.856;2022-07-29T03:36:48;3.40;;;1.63;;
33148;SDS011;19506;51.040;3.856;2022-07-29T03:39:15;9.48;;;1.92;;
33148;SDS011;19506;51.040;3.856;2022-07-29T03:41:46;6.28;;;1.92;;
33148;SDS011;19506;51.040;3.856;2022-07-29T03:44:15;3.42;;;1.98;;
33148;SDS011;19506;51.040;3.856;2022-07-29T03:46:43;4.30;;;1.65;;
33148;SDS011;19506;51.040;3.856;2022-07-29T03:49:10;2.33;;;1.52;;
33148;SDS011;19506;51.040;3.856;2022-07-29T03:51:37;4.97;;;1.70;;
33148;SDS011;19506;51.040;3.856;2022-07-29T03:54:03;3.33;;;1.80;;
33148;SDS011;19506;51.040;3.856;2022-07-29T03:56:31;3.17;;;1.70;;
33148;SDS011;19506;51.040;3.856;2022-07-29T03:58:59;3.13;;;1.73;;
33148;SDS011;19506;51.040;3.856;2022-07-29T04:01:28;3.53;;;1.67;;
33148;SDS011;19506;51.040;3.856;2022-07-29T04:03:55;3.15;;;1.83;;
33148;SDS011;19506;51.040;3.856;2022-07-29T04:06:21;4.40;;;1.77;;
33148;SDS011;19506;51.040;3.856;2022-07-29T04:08:47;4.32;;;1.70;;
33148;SDS011;19506;51.040;3.856;2022-07-29T04:11:13;6.22;;;1.90;;
33148;SDS011;19506;51.040;3.856;2022-07-29T04:13:38;10.27;;;2.88;;
33148;SDS011;19506;51.040;3.856;2022-07-29T04:16:04;6.70;;;2.47;;
33148;SDS011;19506;51.040;3.856;2022-07-29T04:18:30;9.02;;;2.55;;
33148;SDS011;19506;51.040;3.856;2022-07-29T04:20:55;11.82;;;2.63;;
33148;SDS011;19506;51.040;3.856;2022-07-29T04:23:23;14.35;;;2.65;;
33148;SDS011;19506;51.040;3.856;2022-07-29T04:25:49;8.85;;;2.53;;
33148;SDS011;19506;51.040;3.856;2022-07-29T04:28:15;5.35;;;2.47;;
33148;SDS011;19506;51.040;3.856;2022-07-29T04:30:40;5.00;;;2.58;;
33148;SDS011;19506;51.040;3.856;2022-07-29T04:33:06;5.22;;;1.80;;
33148;SDS011;19506;51.040;3.856;2022-07-29T04:35:36;6.75;;;2.92;;
33148;SDS011;19506;51.040;3.856;2022-07-29T04:38:03;4.22;;;2.13;;
33148;SDS011;19506;51.040;3.856;2022-07-29T04:40:29;5.22;;;2.20;;
33148;SDS011;19506;51.040;3.856;2022-07-29T04:42:55;3.65;;;1.70;;
33148;SDS011;19506;51.040;3.856;2022-07-29T04:45:21;5.82;;;2.38;;
33148;SDS011;19506;51.040;3.856;2022-07-29T04:47:47;3.88;;;2.00;;
33148;SDS011;19506;51.040;3.856;2022-07-29T04:50:13;2.38;;;1.83;;
33148;SDS011;19506;51.040;3.856;2022-07-29T04:52:39;6.22;;;2.05;;
33148;SDS011;19506;51.040;3.856;2022-07-29T04:55:05;3.05;;;1.80;;
33148;SDS011;19506;51.040;3.856;2022-07-29T04:57:31;4.57;;;2.50;;
33148;SDS011;19506;51.040;3.856;2022-07-29T04:59:57;5.20;;;3.00;;
33148;SDS011;19506;51.040;3.856;2022-07-29T05:02:23;8.00;;;2.80;;
33148;SDS011;19506;51.040;3.856;2022-07-29T05:04:49;10.57;;;2.70;;
33148;SDS011;19506;51.040;3.856;2022-07-29T05:07:14;8.73;;;2.80;;
33148;SDS011;19506;51.040;3.856;2022-07-29T05:09:40;6.45;;;2.80;;
33148;SDS011;19506;51.040;3.856;2022-07-29T05:12:06;5.72;;;2.55;;
33148;SDS011;19506;51.040;3.856;2022-07-29T05:14:32;4.50;;;2.42;;
33148;SDS011;19506;51.040;3.856;2022-07-29T05:16:58;9.15;;;2.17;;
33148;SDS011;19506;51.040;3.856;2022-07-29T05:19:23;7.40;;;2.22;;
33148;SDS011;19506;51.040;3.856;2022-07-29T05:21:49;6.40;;;2.47;;
33148;SDS011;19506;51.040;3.856;2022-07-29T05:24:15;5.40;;;2.47;;
33148;SDS011;19506;51.040;3.856;2022-07-29T05:26:41;5.03;;;2.30;;
33148;SDS011;19506;51.040;3.856;2022-07-29T05:29:07;4.20;;;2.85;;
33148;SDS011;19506;51.040;3.856;2022-07-29T05:31:33;5.43;;;2.20;;
33148;SDS011;19506;51.040;3.856;2022-07-29T05:33:58;6.20;;;2.10;;
33148;SDS011;19506;51.040;3.856;2022-07-29T05:36:24;5.50;;;1.67;;
33148;SDS011;19506;51.040;3.856;2022-07-29T05:38:50;6.40;;;1.70;;
33148;SDS011;19506;51.040;3.856;2022-07-29T05:41:17;4.38;;;2.10;;
33148;SDS011;19506;51.040;3.856;2022-07-29T05:43:43;4.00;;;2.00;;
33148;SDS011;19506;51.040;3.856;2022-07-29T05:46:09;10.75;;;2.63;;
33148;SDS011;19506;51.040;3.856;2022-07-29T05:48:35;2.67;;;2.00;;
33148;SDS011;19506;51.040;3.856;2022-07-29T05:51:00;4.80;;;1.90;;
33148;SDS011;19506;51.040;3.856;2022-07-29T05:53:26;5.63;;;1.98;;
33148;SDS011;19506;51.040;3.856;2022-07-29T05:55:52;5.53;;;1.63;;
33148;SDS011;19506;51.040;3.856;2022-07-29T05:58:18;17.92;;;2.90;;
33148;SDS011;19506;51.040;3.856;2022-07-29T06:00:44;3.22;;;1.60;;
33148;SDS011;19506;51.040;3.856;2022-07-29T06:03:10;2.50;;;1.48;;
33148;SDS011;19506;51.040;3.856;2022-07-29T06:05:35;3.42;;;2.28;;
33148;SDS011;19506;51.040;3.856;2022-07-29T06:08:01;3.15;;;2.08;;
33148;SDS011;19506;51.040;3.856;2022-07-29T06:10:27;2.63;;;1.73;;
33148;SDS011;19506;51.040;3.856;2022-07-29T06:12:52;5.60;;;2.03;;
33148;SDS011;19506;51.040;3.856;2022-07-29T06:15:18;10.18;;;1.92;;
33148;SDS011;19506;51.040;3.856;2022-07-29T06:17:44;1.63;;;1.30;;
33148;SDS011;19506;51.040;3.856;2022-07-29T06:20:10;5.28;;;1.40;;
33148;SDS011;19506;51.040;3.856;2022-07-29T06:22:35;2.63;;;1.33;;
33148;SDS011;19506;51.040;3.856;2022-07-29T06:25:02;5.55;;;1.70;;
33148;SDS011;19506;51.040;3.856;2022-07-29T06:27:28;2.83;;;1.50;;
33148;SDS011;19506;51.040;3.856;2022-07-29T06:29:55;4.30;;;1.55;;
33148;SDS011;19506;51.040;3.856;2022-07-29T06:32:21;8.60;;;2.10;;
33148;SDS011;19506;51.040;3.856;2022-07-29T06:34:47;5.55;;;1.98;;
33148;SDS011;19506;51.040;3.856;2022-07-29T06:37:12;3.65;;;2.20;;
33148;SDS011;19506;51.040;3.856;2022-07-29T06:39:39;7.85;;;1.55;;
33148;SDS011;19506;51.040;3.856;2022-07-29T06:42:05;10.68;;;1.73;;
33148;SDS011;19506;51.040;3.856;2022-07-29T06:44:31;6.07;;;1.70;;
33148;SDS011;19506;51.040;3.856;2022-07-29T06:47:01;11.35;;;2.05;;
33148;SDS011;19506;51.040;3.856;2022-07-29T06:49:27;5.88;;;1.70;;
33148;SDS011;19506;51.040;3.856;2022-07-29T06:51:53;12.88;;;2.50;;
33148;SDS011;19506;51.040;3.856;2022-07-29T06:54:19;9.23;;;2.95;;
33148;SDS011;19506;51.040;3.856;2022-07-29T06:56:45;11.32;;;1.98;;
33148;SDS011;19506;51.040;3.856;2022-07-29T06:59:11;10.05;;;2.03;;
33148;SDS011;19506;51.040;3.856;2022-07-29T07:01:38;13.45;;;2.55;;
33148;SDS011;19506;51.040;3.856;2022-07-29T07:04:06;6.68;;;2.22;;
33148;SDS011;19506;51.040;3.856;2022-07-29T07:06:33;11.20;;;2.65;;
33148;SDS011;19506;51.040;3.856;2022-07-29T07:08:59;12.63;;;3.08;;
33148;SDS011;19506;51.040;3.856;2022-07-29T07:11:25;29.40;;;4.15;;
33148;SDS011;19506;51.040;3.856;2022-07-29T07:13:51;12.02;;;3.88;;
33148;SDS011;19506;51.040;3.856;2022-07-29T07:16:17;11.63;;;2.75;;
33148;SDS011;19506;51.040;3.856;2022-07-29T07:18:43;17.23;;;3.40;;
33148;SDS011;19506;51.040;3.856;2022-07-29T07:21:10;11.73;;;2.83;;
33148;SDS011;19506;51.040;3.856;2022-07-29T07:23:36;7.70;;;3.05;;
33148;SDS011;19506;51.040;3.856;2022-07-29T07:26:02;21.25;;;3.58;;
33148;SDS011;19506;51.040;3.856;2022-07-29T07:28:28;15.68;;;3.17;;
33148;SDS011;19506;51.040;3.856;2022-07-29T07:30:53;16.23;;;2.97;;
33148;SDS011;19506;51.040;3.856;2022-07-29T07:33:19;10.27;;;3.17;;
33148;SDS011;19506;51.040;3.856;2022-07-29T07:35:45;11.02;;;3.40;;
33148;SDS011;19506;51.040;3.856;2022-07-29T07:38:11;8.43;;;3.33;;
33148;SDS011;19506;51.040;3.856;2022-07-29T07:40:37;14.95;;;3.05;;
33148;SDS011;19506;51.040;3.856;2022-07-29T07:43:03;11.05;;;2.83;;
33148;SDS011;19506;51.040;3.856;2022-07-29T07:45:29;13.38;;;3.25;;
33148;SDS011;19506;51.040;3.856;2022-07-29T07:47:57;7.57;;;2.65;;
33148;SDS011;19506;51.040;3.856;2022-07-29T07:50:23;10.02;;;2.47;;
33148;SDS011;19506;51.040;3.856;2022-07-29T07:52:49;6.95;;;2.28;;
33148;SDS011;19506;51.040;3.856;2022-07-29T07:55:17;7.35;;;2.67;;
33148;SDS011;19506;51.040;3.856;2022-07-29T07:57:43;5.18;;;2.78;;
33148;SDS011;19506;51.040;3.856;2022-07-29T08:00:10;8.75;;;2.83;;
33148;SDS011;19506;51.040;3.856;2022-07-29T08:02:38;9.20;;;3.05;;
33148;SDS011;19506;51.040;3.856;2022-07-29T08:05:04;22.45;;;4.30;;
33148;SDS011;19506;51.040;3.856;2022-07-29T08:07:31;9.98;;;4.10;;
33148;SDS011;19506;51.040;3.856;2022-07-29T08:09:57;9.00;;;4.57;;
33148;SDS011;19506;51.040;3.856;2022-07-29T08:12:23;12.27;;;5.43;;
33148;SDS011;19506;51.040;3.856;2022-07-29T08:14:48;9.65;;;4.15;;
33148;SDS011;19506;51.040;3.856;2022-07-29T08:17:14;14.48;;;3.55;;
33148;SDS011;19506;51.040;3.856;2022-07-29T08:19:40;10.70;;;4.60;;
33148;SDS011;19506;51.040;3.856;2022-07-29T08:22:05;8.20;;;3.55;;
33148;SDS011;19506;51.040;3.856;2022-07-29T08:24:31;20.33;;;3.80;;
33148;SDS011;19506;51.040;3.856;2022-07-29T08:27:12;7.05;;;3.13;;
33148;SDS011;19506;51.040;3.856;2022-07-29T08:29:38;13.40;;;3.95;;
33148;SDS011;19506;51.040;3.856;2022-07-29T08:32:05;20.38;;;5.03;;
33148;SDS011;19506;51.040;3.856;2022-07-29T08:34:31;13.90;;;4.75;;
33148;SDS011;19506;51.040;3.856;2022-07-29T08:36:57;17.80;;;5.50;;
33148;SDS011;19506;51.040;3.856;2022-07-29T08:39:24;14.02;;;4.32;;
33148;SDS011;19506;51.040;3.856;2022-07-29T08:41:50;11.40;;;3.53;;
33148;SDS011;19506;51.040;3.856;2022-07-29T08:44:17;11.00;;;4.13;;
33148;SDS011;19506;51.040;3.856;2022-07-29T08:46:43;13.85;;;3.92;;
33148;SDS011;19506;51.040;3.856;2022-07-29T08:49:09;20.20;;;6.32;;
33148;SDS011;19506;51.040;3.856;2022-07-29T08:51:36;10.63;;;4.80;;
33148;SDS011;19506;51.040;3.856;2022-07-29T08:54:04;7.70;;;3.90;;
33148;SDS011;19506;51.040;3.856;2022-07-29T08:56:31;10.82;;;5.45;;
